Time;durP1;ratioP1;P1;durP2;ratioP2;P2;SDS_P1;SDS_P2;PMS_P1;PMS_P2;Temp;Humidity;BMP_temperature;BMP_pressure;BME280_temperature;BME280_humidity;BME280_pressure;Samples;Min_cycle;Max_cycle;Signal;HPM_P1;HPM_P2
2021/01/24 00:01:01;;;;;;;0.50;0.47;;;;;;;1.96;100.00;99070.41;5038326;28;20447;-63
2021/01/24 00:03:27;;;;;;;0.70;0.60;;;;;;;1.94;100.00;99077.88;5041443;28;20504;-63
2021/01/24 00:05:54;;;;;;;0.70;0.53;;;;;;;1.90;100.00;99082.19;5058295;28;20820;-64
2021/01/24 00:08:22;;;;;;;0.40;0.30;;;;;;;1.88;100.00;99088.91;5056162;28;20442;-63
2021/01/24 00:10:48;;;;;;;1.87;1.77;;;;;;;1.88;100.00;99087.03;5039234;28;20459;-64
2021/01/24 00:13:15;;;;;;;0.50;0.40;;;;;;;1.93;100.00;99083.53;5041452;28;20623;-63
2021/01/24 00:15:41;;;;;;;0.50;0.43;;;;;;;1.99;100.00;99072.53;5038229;28;20797;-65
2021/01/24 00:18:07;;;;;;;6.43;1.37;;;;;;;2.02;100.00;99089.84;5036574;28;20497;-64
2021/01/24 00:20:34;;;;;;;0.40;0.30;;;;;;;2.01;100.00;99069.56;5055061;28;20448;-66
2021/01/24 00:23:00;;;;;;;0.83;0.80;;;;;;;1.90;100.00;99081.41;5053802;28;20528;-64
2021/01/24 00:25:26;;;;;;;0.40;0.40;;;;;;;1.89;100.00;99080.59;5039003;28;20439;-64
2021/01/24 00:27:52;;;;;;;2.37;2.07;;;;;;;1.85;100.00;99082.25;5039767;28;20968;-64
2021/01/24 00:30:20;;;;;;;0.40;0.30;;;;;;;1.91;100.00;99072.34;5061815;28;20457;-63
2021/01/24 00:32:46;;;;;;;0.50;0.40;;;;;;;1.93;100.00;99073.63;5061833;28;20470;-64
2021/01/24 00:35:13;;;;;;;4.70;1.30;;;;;;;1.91;100.00;99085.69;5043840;28;20457;-64
2021/01/24 00:37:40;;;;;;;0.40;0.40;;;;;;;2.02;100.00;99084.50;5041779;28;20980;-64
2021/01/24 00:40:08;;;;;;;0.80;0.50;;;;;;;2.00;100.00;99073.31;5043568;28;20443;-64
2021/01/24 00:42:34;;;;;;;1.23;1.07;;;;;;;1.92;100.00;99073.94;5046918;28;20520;-65
2021/01/24 00:45:00;;;;;;;0.60;0.60;;;;;;;1.93;100.00;99076.31;5061170;28;20953;-64
2021/01/24 00:47:27;;;;;;;2.20;0.87;;;;;;;1.94;100.00;99074.44;5057095;28;21011;-64
2021/01/24 00:49:54;;;;;;;0.60;0.50;;;;;;;1.86;100.00;99080.38;5041342;28;20457;-64
2021/01/24 00:52:20;;;;;;;1.43;0.93;;;;;;;1.82;100.00;99085.50;5059890;28;20438;-64
2021/01/24 00:54:46;;;;;;;0.80;0.80;;;;;;;1.90;100.00;99086.75;5061420;28;20512;-64
2021/01/24 00:57:12;;;;;;;1.13;1.10;;;;;;;1.83;100.00;99088.97;5043441;28;20457;-64
2021/01/24 00:59:38;;;;;;;0.40;0.20;;;;;;;1.92;100.00;99092.63;5041018;28;20446;-64
2021/01/24 01:02:04;;;;;;;0.77;0.53;;;;;;;1.89;100.00;99093.16;5056980;28;20495;-64
2021/01/24 01:04:32;;;;;;;0.67;0.43;;;;;;;1.89;100.00;99106.50;5045379;28;20490;-64
2021/01/24 01:06:58;;;;;;;0.40;0.40;;;;;;;1.90;100.00;99097.41;5037941;28;20505;-65
2021/01/24 01:09:24;;;;;;;0.40;0.30;;;;;;;1.87;100.00;99098.00;5049800;28;20449;-67
2021/01/24 01:11:50;;;;;;;1.20;1.10;;;;;;;1.84;100.00;99093.22;5057367;28;20492;-67
2021/01/24 01:14:16;;;;;;;3.63;1.03;;;;;;;1.87;100.00;99095.34;5072437;23;20498;-70
2021/01/24 01:16:42;;;;;;;1.07;0.53;;;;;;;1.89;100.00;99101.97;5055832;28;20477;-68
2021/01/24 01:19:09;;;;;;;1.23;0.80;;;;;;;1.89;100.00;99091.28;5055605;28;20450;-70
2021/01/24 01:21:36;;;;;;;0.80;0.50;;;;;;;1.93;100.00;99088.84;5055550;28;21014;-69
2021/01/24 01:24:03;;;;;;;0.97;0.97;;;;;;;1.98;100.00;99091.47;5046251;28;20997;-70
2021/01/24 01:26:29;;;;;;;1.93;0.97;;;;;;;2.01;100.00;99086.38;5035814;28;20518;-70
2021/01/24 01:28:55;;;;;;;0.50;0.50;;;;;;;2.05;100.00;99089.28;5042385;28;20496;-70
2021/01/24 01:31:21;;;;;;;10.97;1.17;;;;;;;2.00;100.00;99086.66;5055607;28;20463;-70
2021/01/24 01:33:47;;;;;;;0.40;0.33;;;;;;;2.09;100.00;99093.00;5049785;28;20470;-69
2021/01/24 01:36:13;;;;;;;0.70;0.70;;;;;;;2.14;100.00;99087.59;5035623;28;20478;-68
2021/01/24 01:38:40;;;;;;;1.27;0.90;;;;;;;2.21;100.00;99087.25;5038583;28;20535;-69
2021/01/24 01:41:07;;;;;;;0.60;0.60;;;;;;;2.09;100.00;99084.19;5054677;28;20442;-68
2021/01/24 01:43:33;;;;;;;2.40;0.63;;;;;;;2.11;100.00;99088.16;5052902;28;20510;-69
2021/01/24 01:45:59;;;;;;;0.40;0.30;;;;;;;2.08;100.00;99083.41;5035424;28;20488;-68
2021/01/24 01:48:25;;;;;;;0.70;0.70;;;;;;;2.07;100.00;99084.44;5035202;28;20963;-69
2021/01/24 01:50:52;;;;;;;0.50;0.50;;;;;;;2.22;100.00;99089.66;5054944;28;20446;-69
2021/01/24 01:53:18;;;;;;;2.47;1.00;;;;;;;2.25;100.00;99086.41;5049524;28;20469;-69
2021/01/24 01:55:45;;;;;;;0.80;0.80;;;;;;;2.25;100.00;99089.06;5034961;28;20820;-68
2021/01/24 01:58:11;;;;;;;0.83;0.83;;;;;;;2.21;100.00;99093.41;5035956;28;20970;-68
2021/01/24 02:00:37;;;;;;;0.40;0.30;;;;;;;2.20;100.00;99091.00;5035168;28;20474;-69
2021/01/24 02:03:15;;;;;;;0.47;0.37;;;;;;;2.24;100.00;99092.81;5037374;28;20537;-68
2021/01/24 02:05:51;;;;;;;0.50;0.50;;;;;;;2.20;100.00;99099.81;5054775;28;20437;-69
2021/01/24 02:08:25;;;;;;;0.50;0.47;;;;;;;2.13;100.00;99086.00;5053317;28;20506;-69
2021/01/24 02:10:58;;;;;;;2.33;1.13;;;;;;;2.08;100.00;99088.72;5054632;28;20897;-69
2021/01/24 02:13:33;;;;;;;0.40;0.37;;;;;;;2.11;100.00;99088.16;5050442;28;20474;-69
2021/01/24 02:16:03;;;;;;;0.40;0.30;;;;;;;2.06;100.00;99085.53;5034660;28;20919;-69
2021/01/24 02:18:33;;;;;;;0.73;0.73;;;;;;;2.07;100.00;99091.66;5038824;28;20447;-69
2021/01/24 02:21:06;;;;;;;1.90;1.80;;;;;;;2.07;100.00;99087.13;5054725;28;20437;-69
2021/01/24 02:23:32;;;;;;;0.40;0.30;;;;;;;2.13;100.00;99095.91;5050177;28;20573;-68
2021/01/24 02:26:07;;;;;;;2.57;0.80;;;;;;;2.07;100.00;99094.34;5042581;28;20443;-69
2021/01/24 02:28:58;;;;;;;1.60;0.83;;;;;;;2.10;100.00;99091.91;5051903;28;20457;-69
2021/01/24 02:31:27;;;;;;;0.60;0.50;;;;;;;2.10;100.00;99083.91;5054156;28;20945;-68
2021/01/24 02:33:56;;;;;;;0.40;0.30;;;;;;;2.11;100.00;99080.13;5048730;28;20494;-69
2021/01/24 02:36:24;;;;;;;0.90;0.87;;;;;;;2.09;100.00;99082.31;5034637;28;20597;-69
2021/01/24 02:38:51;;;;;;;1.23;1.23;;;;;;;2.05;100.00;99083.16;5034755;28;20497;-68
2021/01/24 02:41:18;;;;;;;0.40;0.30;;;;;;;2.12;100.00;99078.25;5034415;28;20513;-69
2021/01/24 02:43:46;;;;;;;0.70;0.70;;;;;;;2.18;100.00;99079.81;5043336;28;20539;-69
2021/01/24 02:46:14;;;;;;;0.40;0.30;;;;;;;2.13;100.00;99079.88;5054252;28;20448;-69
2021/01/24 02:48:43;;;;;;;0.70;0.67;;;;;;;2.11;100.00;99082.03;5052460;28;20524;-69
2021/01/24 02:51:10;;;;;;;2.10;1.03;;;;;;;2.17;100.00;99078.22;5054037;28;20555;-69
2021/01/24 02:53:38;;;;;;;0.40;0.40;;;;;;;2.17;100.00;99081.69;5046249;28;20459;-69
2021/01/24 02:56:06;;;;;;;0.40;0.33;;;;;;;2.11;100.00;99068.66;5034105;28;20458;-69
2021/01/24 02:58:33;;;;;;;0.60;0.60;;;;;;;2.20;100.00;99072.31;5035036;28;20471;-69
2021/01/24 03:00:59;;;;;;;1.17;0.60;;;;;;;2.20;100.00;99064.28;5034038;28;20449;-69
2021/01/24 03:03:25;;;;;;;1.23;0.60;;;;;;;2.09;100.00;99060.94;5038202;28;20506;-69
2021/01/24 03:05:52;;;;;;;0.40;0.37;;;;;;;2.09;100.00;99062.81;5053933;28;20438;-69
2021/01/24 03:08:20;;;;;;;0.93;0.93;;;;;;;2.09;100.00;99060.94;5050583;28;20501;-68
2021/01/24 03:10:47;;;;;;;1.13;1.13;;;;;;;2.21;100.00;99057.88;5047594;28;20472;-68
2021/01/24 03:13:19;;;;;;;0.40;0.30;;;;;;;2.16;100.00;99048.03;5051834;28;20474;-68
2021/01/24 03:15:47;;;;;;;1.37;1.03;;;;;;;2.10;100.00;99049.19;5033434;28;20429;-69
2021/01/24 03:18:18;;;;;;;4.73;1.80;;;;;;;1.99;100.00;99048.50;5034414;28;20439;-69
2021/01/24 03:20:46;;;;;;;3.90;0.60;;;;;;;1.93;100.00;99049.59;5053373;28;20453;-69
2021/01/24 03:23:14;;;;;;;0.40;0.30;;;;;;;1.91;100.00;99040.31;5052840;28;20521;-69
2021/01/24 03:25:41;;;;;;;0.40;0.30;;;;;;;1.93;100.00;99048.81;5033660;28;20446;-69
2021/01/24 03:28:07;;;;;;;2.33;1.47;;;;;;;1.99;100.00;99050.34;5033605;28;20475;-69
2021/01/24 03:30:34;;;;;;;1.53;0.70;;;;;;;1.91;100.00;99045.66;5033228;28;20482;-69
2021/01/24 03:33:00;;;;;;;0.40;0.30;;;;;;;2.07;100.00;99048.94;5032684;28;20554;-69
2021/01/24 03:35:27;;;;;;;10.57;1.20;;;;;;;2.03;100.00;99038.03;5033505;28;20439;-68
2021/01/24 03:37:53;;;;;;;0.70;0.60;;;;;;;2.14;100.00;99039.53;5033196;28;20837;-69
2021/01/24 03:40:20;;;;;;;0.47;0.40;;;;;;;2.14;100.00;99046.75;5033083;28;20470;-69
2021/01/24 03:42:47;;;;;;;0.40;0.30;;;;;;;2.24;100.00;99050.09;5032594;28;20457;-69
2021/01/24 03:45:14;;;;;;;1.63;1.17;;;;;;;2.17;100.00;99044.31;5033426;28;20474;-69
2021/01/24 03:47:40;;;;;;;0.60;0.53;;;;;;;2.13;100.00;99045.94;5033007;28;20878;-69
2021/01/24 03:50:07;;;;;;;2.60;1.23;;;;;;;2.19;100.00;99046.69;5051750;28;20541;-69
2021/01/24 03:52:34;;;;;;;1.60;0.50;;;;;;;2.10;100.00;99048.38;5053094;28;20796;-70
2021/01/24 03:55:00;;;;;;;0.40;0.30;;;;;;;2.15;100.00;99057.13;5034825;28;20526;-68
2021/01/24 03:57:27;;;;;;;0.60;0.60;;;;;;;2.11;100.00;99053.44;5033231;28;20867;-68
2021/01/24 03:59:54;;;;;;;0.90;0.73;;;;;;;2.05;100.00;99059.13;5048993;28;20812;-69
2021/01/24 04:02:20;;;;;;;0.60;0.60;;;;;;;2.12;100.00;99051.56;5052521;28;20442;-69
2021/01/24 04:04:47;;;;;;;0.50;0.50;;;;;;;2.21;100.00;99052.53;5037892;28;20487;-69
2021/01/24 04:07:14;;;;;;;1.30;0.57;;;;;;;2.22;100.00;99049.59;5032780;28;20968;-68
2021/01/24 04:09:40;;;;;;;0.40;0.30;;;;;;;2.13;100.00;99053.16;5045970;28;20467;-69
2021/01/24 04:12:07;;;;;;;0.50;0.50;;;;;;;2.07;100.00;99049.72;5052541;28;20802;-67
2021/01/24 04:14:34;;;;;;;1.90;0.93;;;;;;;2.04;100.00;99053.00;5040644;28;21087;-69
2021/01/24 04:17:00;;;;;;;0.87;0.87;;;;;;;2.04;100.00;99044.97;5033226;28;20504;-68
2021/01/24 04:19:26;;;;;;;1.80;0.83;;;;;;;2.06;100.00;99053.50;5042630;28;20445;-68
2021/01/24 04:21:53;;;;;;;0.40;0.30;;;;;;;2.18;100.00;99045.91;5052868;28;20470;-69
2021/01/24 04:24:19;;;;;;;1.80;0.93;;;;;;;2.32;100.00;99047.88;5037714;28;20942;-69
2021/01/24 04:26:45;;;;;;;1.43;0.70;;;;;;;2.24;100.00;99043.94;5032805;28;20501;-69
2021/01/24 04:29:11;;;;;;;2.40;0.70;;;;;;;2.37;100.00;99047.81;5046142;28;20475;-68
2021/01/24 04:31:38;;;;;;;0.40;0.30;;;;;;;2.23;100.00;99047.72;5052800;28;20443;-71
2021/01/24 04:34:04;;;;;;;1.07;1.03;;;;;;;2.37;100.00;99047.81;5040773;28;20495;-70
2021/01/24 04:36:30;;;;;;;1.23;0.67;;;;;;;2.45;100.00;99048.00;5032924;28;20489;-69
2021/01/24 04:38:56;;;;;;;2.20;1.13;;;;;;;2.27;100.00;99038.84;5042383;28;20970;-69
2021/01/24 04:41:23;;;;;;;0.80;0.77;;;;;;;2.28;100.00;99035.09;5052749;28;20465;-67
2021/01/24 04:43:50;;;;;;;2.03;1.93;;;;;;;2.26;100.00;99036.47;5034583;28;20489;-68
2021/01/24 04:46:17;;;;;;;1.00;0.90;;;;;;;2.24;100.00;99033.28;5032743;28;20455;-68
2021/01/24 04:48:44;;;;;;;1.47;0.83;;;;;;;2.31;100.00;99028.41;5047988;28;20484;-69
2021/01/24 04:51:11;;;;;;;0.70;0.40;;;;;;;2.38;100.00;99026.16;5052650;28;20450;-69
2021/01/24 04:53:37;;;;;;;0.40;0.40;;;;;;;2.40;100.00;99026.69;5037659;28;20475;-69
2021/01/24 04:56:04;;;;;;;1.67;0.60;;;;;;;2.43;100.00;99023.41;5032684;28;20439;-68
2021/01/24 04:58:31;;;;;;;0.60;0.47;;;;;;;2.40;100.00;99025.88;5045094;28;20452;-68
2021/01/24 05:00:57;;;;;;;0.70;0.70;;;;;;;2.38;100.00;99022.69;5039772;28;20581;-69
2021/01/24 05:03:23;;;;;;;0.93;0.83;;;;;;;2.37;100.00;99021.91;5043206;28;20587;-68
2021/01/24 05:05:50;;;;;;;0.47;0.27;;;;;;;2.33;100.00;99025.44;5052442;28;20458;-68
2021/01/24 05:08:17;;;;;;;1.70;1.13;;;;;;;2.33;100.00;99028.88;5050773;28;20449;-68
2021/01/24 05:10:46;;;;;;;0.50;0.50;;;;;;;2.39;100.00;99014.41;5052112;28;20449;-68
2021/01/24 05:13:12;;;;;;;3.90;0.60;;;;;;;2.33;100.00;99014.75;5051271;28;20493;-68
2021/01/24 05:15:38;;;;;;;0.80;0.47;;;;;;;2.42;100.00;99010.34;5054175;28;20422;-69
2021/01/24 05:18:06;;;;;;;1.53;1.43;;;;;;;2.41;100.00;99012.22;5048625;28;20472;-69
2021/01/24 05:20:33;;;;;;;0.40;0.30;;;;;;;2.36;100.00;99014.97;5035629;28;20446;-68
2021/01/24 05:23:01;;;;;;;0.50;0.43;;;;;;;2.40;100.00;99004.50;5040815;28;21011;-68
2021/01/24 05:25:29;;;;;;;0.93;0.90;;;;;;;2.49;100.00;99003.59;5055796;28;20454;-68
2021/01/24 05:27:55;;;;;;;1.10;0.50;;;;;;;2.58;100.00;99003.75;5054622;28;20832;-69
2021/01/24 05:30:23;;;;;;;2.43;1.17;;;;;;;2.60;100.00;98996.22;5055406;28;20944;-68
2021/01/24 05:32:53;;;;;;;1.13;1.00;;;;;;;2.69;100.00;99007.06;5052297;28;20442;-69
2021/01/24 05:35:19;;;;;;;0.40;0.30;;;;;;;2.71;100.00;99005.72;5035418;28;20446;-69
2021/01/24 05:37:47;;;;;;;0.50;0.40;;;;;;;2.71;100.00;99005.72;5036575;28;20475;-69
2021/01/24 05:40:14;;;;;;;1.37;0.80;;;;;;;2.73;100.00;99008.88;5055220;28;20967;-69
2021/01/24 05:42:41;;;;;;;0.60;0.53;;;;;;;2.73;100.00;99016.91;5054896;28;20450;-70
2021/01/24 05:45:13;;;;;;;0.40;0.30;;;;;;;2.80;100.00;99021.09;5035455;28;20526;-70
2021/01/24 05:47:42;;;;;;;0.47;0.37;;;;;;;2.84;100.00;99014.09;5035134;28;20958;-69
2021/01/24 05:50:12;;;;;;;0.50;0.43;;;;;;;2.87;100.00;99018.84;5035059;28;20996;-69
2021/01/24 05:52:40;;;;;;;1.73;0.57;;;;;;;2.92;100.00;99016.94;5043593;28;20450;-69
2021/01/24 05:55:08;;;;;;;0.40;0.40;;;;;;;2.92;100.00;99018.78;5055163;28;20518;-69
2021/01/24 05:57:37;;;;;;;0.63;0.63;;;;;;;2.88;100.00;99015.09;5047606;28;20447;-69
2021/01/24 06:00:06;;;;;;;0.40;0.30;;;;;;;2.89;100.00;99024.72;5035968;28;20473;-69
2021/01/24 06:02:32;;;;;;;0.67;0.67;;;;;;;2.76;100.00;99019.00;5037839;28;20442;-68
2021/01/24 06:04:58;;;;;;;0.40;0.30;;;;;;;2.78;100.00;99027.50;5054550;28;20493;-68
2021/01/24 06:07:24;;;;;;;0.40;0.30;;;;;;;2.75;100.00;99013.94;5053047;28;20450;-70
2021/01/24 06:09:51;;;;;;;0.90;0.80;;;;;;;2.80;100.00;99015.75;5035099;28;20475;-70
2021/01/24 06:12:23;;;;;;;1.10;0.57;;;;;;;2.83;100.00;99028.53;5035205;28;20479;-70
2021/01/24 06:14:52;;;;;;;0.70;0.70;;;;;;;2.84;100.00;99030.16;5034489;28;20822;-70
2021/01/24 06:17:28;;;;;;;0.40;0.30;;;;;;;2.76;100.00;99023.56;5034909;28;20805;-70
2021/01/24 06:19:58;;;;;;;0.57;0.57;;;;;;;2.81;100.00;99028.03;5034629;28;20433;-70
2021/01/24 06:22:30;;;;;;;0.40;0.30;;;;;;;2.82;100.00;99025.06;5034724;28;20451;-72
2021/01/24 06:25:00;;;;;;;0.40;0.30;;;;;;;2.74;100.00;99020.34;5034296;28;20487;-73
2021/01/24 06:27:30;;;;;;;0.40;0.30;;;;;;;2.78;100.00;99030.19;5034138;28;20438;-73
2021/01/24 06:30:00;;;;;;;0.40;0.30;;;;;;;2.88;100.00;99028.47;5034662;28;20798;-73
2021/01/24 06:32:28;;;;;;;0.40;0.30;;;;;;;2.78;100.00;99029.41;5034666;28;20475;-72
2021/01/24 06:34:55;;;;;;;0.40;0.30;;;;;;;2.86;100.00;99026.09;5034234;28;20498;-72
2021/01/24 06:37:28;;;;;;;0.40;0.30;;;;;;;2.94;100.00;99030.78;5034561;28;20482;-72
2021/01/24 06:39:55;;;;;;;0.40;0.30;;;;;;;2.95;100.00;99036.94;5034548;28;20428;-72
2021/01/24 06:42:48;;;;;;;0.50;0.50;;;;;;;2.97;100.00;99040.91;5034454;28;20462;-72
2021/01/24 06:45:37;;;;;;;0.40;0.30;;;;;;;2.96;100.00;99049.22;5034056;28;20981;-73
2021/01/24 06:48:05;;;;;;;0.70;0.70;;;;;;;2.98;100.00;99049.72;5033916;28;20447;-72
2021/01/24 06:50:37;;;;;;;0.40;0.30;;;;;;;3.02;100.00;99042.72;5034085;28;20926;-72
2021/01/24 06:53:04;;;;;;;0.50;0.47;;;;;;;3.03;100.00;99045.09;5033862;28;20455;-72
2021/01/24 06:55:31;;;;;;;0.40;0.20;;;;;;;3.05;100.00;99039.44;5033942;28;20540;-72
2021/01/24 06:57:57;;;;;;;0.50;0.50;;;;;;;3.03;100.00;99034.41;5034108;28;20483;-72
2021/01/24 07:00:24;;;;;;;0.50;0.47;;;;;;;2.98;100.00;99041.72;5034198;28;20505;-72
2021/01/24 07:02:51;;;;;;;0.43;0.33;;;;;;;3.05;100.00;99039.44;5034037;28;20451;-72
2021/01/24 07:05:19;;;;;;;0.63;0.50;;;;;;;3.06;100.00;99041.06;5034012;28;20490;-71
2021/01/24 07:07:46;;;;;;;0.97;0.60;;;;;;;3.03;100.00;99041.63;5033828;28;20665;-71
2021/01/24 07:10:43;;;;;;;0.40;0.30;;;;;;;2.97;100.00;99048.16;5033699;28;20450;-72
2021/01/24 07:15:52;;;;;;;0.63;0.63;;;;;;;2.94;100.00;99046.03;5041117;28;20471;-80
2021/01/24 07:18:20;;;;;;;1.70;0.77;;;;;;;2.97;100.00;99051.63;5044324;28;20844;-80
2021/01/24 07:20:47;;;;;;;0.40;0.30;;;;;;;2.98;100.00;99045.19;5044080;28;20440;-80
2021/01/24 07:23:14;;;;;;;0.60;0.60;;;;;;;2.97;100.00;99050.81;5044412;28;20481;-80
2021/01/24 07:25:40;;;;;;;1.23;1.13;;;;;;;2.99;100.00;99056.66;5042969;28;20425;-80
2021/01/24 07:28:07;;;;;;;0.50;0.40;;;;;;;2.97;100.00;99061.53;5045169;28;20486;-79
2021/01/24 07:30:38;;;;;;;0.40;0.30;;;;;;;3.01;100.00;99051.81;5040852;28;20458;-79
2021/01/24 07:33:05;;;;;;;2.23;0.80;;;;;;;2.94;100.00;99056.75;5042692;28;20430;-80
2021/01/24 07:35:35;;;;;;;0.40;0.30;;;;;;;2.91;100.00;99051.97;5041429;28;20438;-81
2021/01/24 07:38:02;;;;;;;0.40;0.30;;;;;;;2.97;100.00;99056.16;5037262;28;20479;-81
2021/01/24 07:40:29;;;;;;;0.40;0.30;;;;;;;3.03;100.00;99053.13;5042491;28;20450;-81
2021/01/24 07:42:56;;;;;;;0.40;0.30;;;;;;;3.10;100.00;99044.75;5046723;28;20443;-80
2021/01/24 07:45:23;;;;;;;1.80;0.67;;;;;;;3.18;100.00;99044.06;5039029;28;20487;-80
2021/01/24 07:47:49;;;;;;;0.40;0.30;;;;;;;3.24;100.00;99050.97;5037363;28;20470;-79
2021/01/24 07:50:15;;;;;;;0.83;0.70;;;;;;;3.24;100.00;99050.97;5035645;28;20579;-79
2021/01/24 07:52:42;;;;;;;0.50;0.40;;;;;;;3.19;100.00;99053.72;5040174;28;20451;-80
2021/01/24 07:55:10;;;;;;;0.40;0.30;;;;;;;3.29;100.00;99053.56;5046705;28;20475;-80
2021/01/24 07:57:38;;;;;;;0.83;0.53;;;;;;;3.30;100.00;99059.69;5047271;28;20462;-81
2021/01/24 08:00:06;;;;;;;0.50;0.50;;;;;;;3.37;100.00;99059.34;5047117;28;20447;-80
2021/01/24 08:02:32;;;;;;;0.40;0.40;;;;;;;3.39;100.00;99065.97;5046608;28;20450;-80
2021/01/24 08:04:59;;;;;;;0.50;0.40;;;;;;;3.40;100.00;99058.75;5047172;28;20486;-79
2021/01/24 08:07:28;;;;;;;0.40;0.33;;;;;;;3.35;100.00;99059.63;5044587;28;20467;-80
2021/01/24 08:09:56;;;;;;;0.40;0.30;;;;;;;3.35;100.00;99058.81;5044251;28;20469;-80
2021/01/24 08:12:22;;;;;;;0.47;0.37;;;;;;;3.35;100.00;99062.28;5044111;28;20469;-80
2021/01/24 08:14:49;;;;;;;0.40;0.23;;;;;;;3.38;100.00;99063.59;5043539;28;20459;-80
2021/01/24 08:17:19;;;;;;;0.40;0.30;;;;;;;3.38;100.00;99068.97;5041994;28;20465;-80
2021/01/24 08:19:46;;;;;;;4.93;2.00;;;;;;;3.39;100.00;99067.88;5041231;28;20439;-80
2021/01/24 08:22:12;;;;;;;0.70;0.60;;;;;;;3.37;100.00;99068.16;5040071;28;20451;-80
2021/01/24 08:24:39;;;;;;;0.40;0.30;;;;;;;3.42;100.00;99061.94;5038560;28;20495;-80
2021/01/24 08:27:08;;;;;;;0.50;0.50;;;;;;;3.42;100.00;99067.28;5036930;28;20467;-79
2021/01/24 08:29:35;;;;;;;0.40;0.30;;;;;;;3.35;100.00;99062.28;5035131;28;20490;-79
2021/01/24 08:32:03;;;;;;;0.40;0.33;;;;;;;3.37;100.00;99065.50;5039396;28;20451;-80
2021/01/24 08:34:30;;;;;;;2.20;0.60;;;;;;;3.36;100.00;99057.75;5043739;28;20443;-80
2021/01/24 08:36:56;;;;;;;0.60;0.50;;;;;;;3.38;100.00;99064.41;5043339;28;20474;-81
2021/01/24 08:39:23;;;;;;;0.70;0.50;;;;;;;3.37;100.00;99064.69;5041685;28;20439;-80
2021/01/24 08:41:52;;;;;;;0.40;0.30;;;;;;;3.36;100.00;99060.41;5042563;28;20439;-81
2021/01/24 08:44:19;;;;;;;2.40;0.80;;;;;;;3.43;100.00;99063.53;5042008;28;20578;-81
2021/01/24 08:46:47;;;;;;;0.40;0.33;;;;;;;3.45;100.00;99064.00;5042011;28;20459;-80
2021/01/24 08:49:19;;;;;;;0.50;0.30;;;;;;;3.55;100.00;99071.91;5042145;28;20512;-81
2021/01/24 08:51:48;;;;;;;3.00;1.20;;;;;;;3.62;100.00;99077.66;5043233;28;20505;-81
2021/01/24 08:54:16;;;;;;;0.50;0.50;;;;;;;3.63;100.00;99073.09;5042383;28;20439;-81
2021/01/24 08:56:42;;;;;;;2.50;0.80;;;;;;;3.67;100.00;99074.13;5042728;28;20466;-80
2021/01/24 08:59:24;;;;;;;0.40;0.40;;;;;;;3.65;100.00;99069.06;5040511;28;20454;-81
2021/01/24 09:01:52;;;;;;;0.40;0.30;;;;;;;3.62;100.00;99072.31;5041838;28;20440;-81
2021/01/24 09:04:23;;;;;;;1.07;0.50;;;;;;;3.61;100.00;99067.25;5039867;28;20905;-80
2021/01/24 09:07:10;;;;;;;4.10;2.30;;;;;;;3.71;100.00;99075.13;5038744;28;20477;-80
2021/01/24 09:09:38;;;;;;;0.70;0.60;;;;;;;3.80;100.00;99081.41;5036826;28;20925;-81
2021/01/24 09:12:06;;;;;;;0.40;0.27;;;;;;;3.80;100.00;99079.50;5042330;28;20435;-81
2021/01/24 09:14:33;;;;;;;1.07;0.80;;;;;;;3.86;100.00;99077.56;5043486;28;20454;-80
2021/01/24 09:17:08;;;;;;;0.40;0.30;;;;;;;3.86;100.00;99079.44;5042950;28;20494;-80
2021/01/24 09:19:36;;;;;;;0.40;0.30;;;;;;;3.86;100.00;99077.56;5041750;28;20423;-81
2021/01/24 09:22:02;;;;;;;2.13;0.97;;;;;;;3.92;100.00;99078.25;5042859;28;20493;-80
2021/01/24 09:24:28;;;;;;;1.47;0.57;;;;;;;3.95;100.00;99078.47;5041972;28;20474;-80
2021/01/24 09:26:55;;;;;;;2.97;0.50;;;;;;;3.95;100.00;99083.84;5040965;28;20466;-80
2021/01/24 09:29:21;;;;;;;3.23;0.67;;;;;;;3.93;100.00;99083.31;5041944;28;20451;-80
2021/01/24 09:31:48;;;;;;;0.40;0.30;;;;;;;3.96;100.00;99085.41;5042314;28;20450;-80
2021/01/24 09:34:15;;;;;;;0.47;0.47;;;;;;;3.95;100.00;99075.78;5041266;28;20447;-80
2021/01/24 09:36:41;;;;;;;7.17;2.70;;;;;;;4.03;100.00;99077.81;5040680;28;20474;-80
2021/01/24 09:39:08;;;;;;;1.03;0.60;;;;;;;4.03;100.00;99079.69;5039463;28;20458;-80
2021/01/24 09:41:35;;;;;;;3.33;0.70;;;;;;;4.03;100.00;99077.00;5039179;28;20451;-81
2021/01/24 09:44:02;;;;;;;0.60;0.50;;;;;;;4.07;100.00;99077.97;5037990;28;20549;-81
2021/01/24 09:46:29;;;;;;;0.50;0.47;;;;;;;4.05;100.00;99077.50;5036812;28;20923;-82
2021/01/24 09:48:56;;;;;;;0.43;0.40;;;;;;;4.01;99.88;99073.81;5036420;28;20443;-82
2021/01/24 09:51:22;;;;;;;3.23;0.60;;;;;;;3.93;99.38;99072.59;5043373;28;20443;-81
2021/01/24 09:53:50;;;;;;;1.73;1.63;;;;;;;3.94;99.62;99076.06;5043365;28;20534;-81
2021/01/24 09:56:16;;;;;;;1.10;1.07;;;;;;;3.92;99.70;99076.38;5044180;28;20443;-81
2021/01/24 09:58:42;;;;;;;0.40;0.33;;;;;;;3.97;99.73;99067.47;5041745;28;20435;-81
2021/01/24 10:01:09;;;;;;;0.40;0.30;;;;;;;4.01;100.00;99076.50;5039378;28;20989;-81
2021/01/24 10:03:35;;;;;;;0.40;0.30;;;;;;;4.08;100.00;99078.81;5039408;28;20493;-81
2021/01/24 10:06:02;;;;;;;3.83;1.70;;;;;;;4.05;100.00;99075.59;5039542;28;20504;-81
2021/01/24 10:08:29;;;;;;;0.83;0.70;;;;;;;4.12;100.00;99083.28;5038269;28;20525;-81
2021/01/24 10:10:55;;;;;;;0.40;0.30;;;;;;;4.13;100.00;99087.53;5038891;28;20501;-81
2021/01/24 10:13:21;;;;;;;0.87;0.87;;;;;;;4.10;100.00;99082.75;5038751;28;20447;-81
2021/01/24 10:15:49;;;;;;;0.50;0.30;;;;;;;4.08;100.00;99087.63;5038390;28;20470;-81
2021/01/24 10:18:16;;;;;;;1.77;1.10;;;;;;;4.10;100.00;99088.13;5037334;28;20512;-81
2021/01/24 10:20:42;;;;;;;3.17;2.30;;;;;;;4.12;99.38;99087.81;5036918;28;20451;-81
2021/01/24 10:23:09;;;;;;;0.93;0.93;;;;;;;4.10;99.14;99090.81;5036905;28;20446;-81
2021/01/24 10:25:35;;;;;;;0.83;0.80;;;;;;;4.10;98.81;99088.13;5036316;28;20490;-80
2021/01/24 10:28:02;;;;;;;0.57;0.43;;;;;;;4.11;99.05;99081.66;5035250;28;20502;-81
2021/01/24 10:30:28;;;;;;;0.40;0.30;;;;;;;4.15;99.00;99074.63;5037575;28;20443;-81
2021/01/24 10:32:54;;;;;;;1.20;1.10;;;;;;;4.19;98.86;99078.31;5038237;28;20459;-81
2021/01/24 10:35:22;;;;;;;0.97;0.60;;;;;;;4.21;98.24;99080.72;5038405;28;20443;-81
2021/01/24 10:37:49;;;;;;;0.40;0.30;;;;;;;4.26;98.27;99081.41;5039627;28;20471;-81
2021/01/24 10:40:16;;;;;;;7.50;1.03;;;;;;;4.27;98.21;99077.63;5037685;28;20447;-81
2021/01/24 10:42:42;;;;;;;0.40;0.40;;;;;;;4.34;98.13;99081.78;5038378;28;20450;-81
2021/01/24 10:45:10;;;;;;;0.80;0.53;;;;;;;4.36;98.30;99080.41;5037877;28;20494;-81
2021/01/24 10:47:36;;;;;;;0.60;0.60;;;;;;;4.39;98.67;99079.03;5037086;28;20450;-81
2021/01/24 10:50:04;;;;;;;0.40;0.40;;;;;;;4.41;98.33;99084.88;5037122;28;20447;-80
2021/01/24 10:52:30;;;;;;;0.90;0.63;;;;;;;4.42;98.55;99087.25;5037278;28;20462;-81
2021/01/24 10:54:56;;;;;;;0.73;0.70;;;;;;;4.44;98.30;99085.09;5036819;28;20973;-80
2021/01/24 10:57:23;;;;;;;0.63;0.60;;;;;;;4.38;98.59;99074.75;5036059;28;20813;-80
2021/01/24 10:59:50;;;;;;;0.40;0.30;;;;;;;4.33;98.92;99083.69;5036599;28;20459;-80
2021/01/24 11:02:16;;;;;;;0.70;0.53;;;;;;;4.31;99.32;99083.19;5036659;28;20975;-79
2021/01/24 11:04:42;;;;;;;1.37;1.27;;;;;;;4.28;99.65;99081.09;5035609;28;20482;-80
2021/01/24 11:07:08;;;;;;;1.03;0.60;;;;;;;4.33;99.83;99078.31;5034860;28;20464;-80
2021/01/24 11:09:35;;;;;;;0.83;0.83;;;;;;;4.43;99.97;99090.75;5038479;28;20814;-80
2021/01/24 11:12:02;;;;;;;0.73;0.60;;;;;;;4.50;100.00;99085.78;5038955;28;20450;-80
2021/01/24 11:14:29;;;;;;;0.53;0.53;;;;;;;4.58;100.00;99092.34;5038386;28;20455;-80
2021/01/24 11:16:55;;;;;;;0.40;0.20;;;;;;;4.62;99.94;99091.44;5037667;28;20467;-80
2021/01/24 11:19:21;;;;;;;0.50;0.50;;;;;;;4.68;99.91;99095.59;5038154;28;20448;-80
2021/01/24 11:21:48;;;;;;;0.40;0.30;;;;;;;4.68;100.00;99092.94;5037425;28;20443;-80
2021/01/24 11:24:14;;;;;;;0.40;0.30;;;;;;;4.73;100.00;99090.13;5038539;28;20483;-80
2021/01/24 11:26:40;;;;;;;2.00;0.80;;;;;;;4.73;100.00;99084.78;5037642;28;20840;-80
2021/01/24 11:29:07;;;;;;;1.70;0.93;;;;;;;4.71;99.95;99086.97;5037033;28;20435;-80
2021/01/24 11:31:34;;;;;;;0.40;0.30;;;;;;;4.71;99.76;99086.97;5039045;28;20450;-80
2021/01/24 11:34:00;;;;;;;0.40;0.30;;;;;;;4.57;99.12;99080.03;5037299;28;20464;-80
2021/01/24 11:36:27;;;;;;;1.43;0.73;;;;;;;4.57;98.81;99078.16;5037669;28;20466;-80
2021/01/24 11:38:53;;;;;;;0.50;0.40;;;;;;;4.56;98.03;99081.94;5037920;28;20451;-80